Louisville International Standiford Field
KSDF : now visible

Airfield :











YOU CAN JOIN US ON...

 
LOGIN :

Register | Disclaimer

   EN    FR    IT 

 









Legend :    VFR   Marginal VFR   IFR   Intensive IFR   Very Intensive IFR
Visi :
Ceiling :
>= 8 km
>= 3000ft
5 to 8 km
1000 to 3000 ft
1500m to 5 km
500 to 1000 ft
800 to 1500m
200 to 500 ft
< 800m
< 200 ft
Symbols :   Thunderstorms  Fog  Heavy snow  Heavy precipitations  Wind > 20 kt






- Airport Elevation : 501 ft
- IATA code : SDF


KSDF - Louisville International Standiford Field

CURRENT METAR :
  • 071956Z VRB06KT 10SM SCT060 29/13 A3012 RMK AO2 SLP196 T02890133

EXPIRED METARs :
  • 071856Z 33003KT 10SM SCT050 28/14 A3013 RMK AO2 SLP198 T02830144
  • 071756Z 34006KT 10SM SCT045 28/16 A3014 RMK AO2 SLP202 T02830156 10283 20194 50000

TAF KSDF
Valid from the 07 at 18:00 until the 09 at 00:00 UTC


071720Z 0718/0824 36007KT P6SM SCT050
FM080100 VRB03KT P6SM SKC
TEMPO 0811/0813 5SM BR
KZID FIR / North America



MET'MAP, your aeronautical weather chart ! - Copyright ORBIFLY December 2007 - Disclaimer

ORBIFLY MET'MAP TEAM :

Programming & Development : Alexandra Zaïnal
Concept & original design : Baudouin d'Aumeries
Assistance for programming : Marc-Olivier Méhu
Technical & hardware support : Manuel Goepfert

Contact : metmap@orbifly.com




SOURCES & CREDITS :

   NOAA       Earth
Advisory